createdAt,value
2023-03-21T00:03:43.439Z,37.5
2023-03-21T00:09:49.206Z,37.6
2023-03-21T00:16:35.237Z,37.6
2023-03-21T00:22:42.670Z,37.7
2023-03-21T00:28:48.436Z,37.7
2023-03-21T00:36:08.719Z,37.7
2023-03-21T00:42:14.404Z,37.7
2023-03-21T00:48:20.054Z,37.7
2023-03-21T00:54:25.061Z,37.7
2023-03-21T01:00:30.453Z,37.8
2023-03-21T01:06:35.601Z,37.8
2023-03-21T01:12:40.788Z,37.8
2023-03-21T01:18:46.134Z,37.8
2023-03-21T01:25:23.288Z,37.8
2023-03-21T01:31:29.110Z,37.8
2023-03-21T01:37:34.670Z,37.9
2023-03-21T01:43:40.236Z,37.9
2023-03-21T01:49:45.598Z,37.9
2023-03-21T01:55:51.615Z,37.8
2023-03-21T02:01:57.347Z,37.9
2023-03-21T02:08:03.133Z,37.9
2023-03-21T02:14:15.264Z,37.9
2023-03-21T02:20:20.975Z,37.9
2023-03-21T02:26:43.007Z,38
2023-03-21T02:32:49.519Z,37.9
2023-03-21T02:38:54.897Z,38
2023-03-21T02:45:00.483Z,38
2023-03-21T02:51:06.448Z,38
2023-03-21T02:57:11.827Z,38
2023-03-21T03:03:36.232Z,38
2023-03-21T03:09:41.416Z,38
2023-03-21T03:15:47.400Z,37.9
2023-03-21T03:21:52.547Z,37.9
2023-03-21T03:27:58.172Z,38
2023-03-21T03:34:03.750Z,38
2023-03-21T03:40:09.139Z,37.9
2023-03-21T03:46:14.813Z,38
2023-03-21T03:52:20.805Z,38
2023-03-21T03:58:46.074Z,37.9
2023-03-21T04:04:51.706Z,38
2023-03-21T04:10:57.263Z,38
2023-03-21T04:17:02.819Z,38
2023-03-21T04:23:08.192Z,38
2023-03-21T04:29:13.973Z,38
2023-03-21T04:35:19.892Z,38
2023-03-21T04:41:25.137Z,38
2023-03-21T04:47:30.697Z,38
2023-03-21T04:53:36.466Z,37.9
2023-03-21T04:59:42.014Z,37.9
2023-03-21T05:05:47.184Z,37.8
2023-03-21T05:11:52.896Z,37.9
2023-03-21T05:17:58.329Z,37.9
2023-03-21T05:24:03.912Z,37.7
2023-03-21T05:30:09.279Z,37.8
2023-03-21T05:36:14.496Z,37.8
2023-03-21T05:42:19.813Z,37.9
2023-03-21T05:48:25.182Z,37.8
2023-03-21T05:54:31.178Z,37.8
2023-03-21T06:00:36.534Z,37.8
2023-03-21T06:06:42.210Z,37.7
2023-03-21T06:12:47.891Z,37.8
2023-03-21T06:18:53.270Z,37.8
2023-03-21T06:24:58.479Z,37.8
2023-03-21T06:31:04.204Z,37.9
2023-03-21T06:37:09.585Z,37.8
2023-03-21T06:43:15.322Z,37.8
2023-03-21T06:49:20.914Z,37.8
2023-03-21T06:55:26.601Z,37.8
2023-03-21T07:01:32.475Z,37.7
2023-03-21T07:07:37.837Z,37.8
2023-03-21T07:13:43.200Z,37.8
2023-03-21T07:19:49.591Z,37.7
2023-03-21T07:25:55.219Z,37.8
2023-03-21T07:32:01.395Z,37.8
2023-03-21T07:38:06.942Z,37.8
2023-03-21T07:44:12.538Z,37.7
2023-03-21T07:50:18.409Z,37.7
2023-03-21T07:56:23.845Z,37.6
2023-03-21T08:02:29.209Z,37.6
2023-03-21T08:08:34.917Z,37.7
2023-03-21T08:14:40.508Z,37.6
2023-03-21T08:20:45.861Z,37.6
2023-03-21T08:26:51.433Z,37.5
2023-03-21T08:32:59.420Z,37.5
2023-03-21T08:39:06.337Z,37.5
2023-03-21T08:45:12.135Z,37.5
2023-03-21T08:51:17.700Z,37.4
2023-03-21T08:57:23.279Z,37.4
2023-03-21T09:03:29.015Z,37.3
2023-03-21T09:09:35.017Z,37.3
2023-03-21T09:15:41.038Z,37.3
2023-03-21T09:21:46.987Z,37.2
2023-03-21T09:27:53.087Z,37.2
2023-03-21T09:33:59.073Z,37.2
2023-03-21T09:40:04.698Z,37.1
2023-03-21T09:46:10.008Z,37.2
2023-03-21T09:52:15.804Z,37.2
2023-03-21T09:58:20.823Z,37.2
2023-03-21T10:04:26.764Z,37.1
2023-03-21T10:10:32.510Z,37.1
2023-03-21T10:16:38.602Z,37.1
2023-03-21T10:22:43.880Z,37
2023-03-21T10:28:56.645Z,37.1
2023-03-21T10:35:02.187Z,37.1
2023-03-21T10:41:07.995Z,37
2023-03-21T10:47:14.898Z,37
2023-03-21T10:53:19.926Z,37
2023-03-21T10:59:26.095Z,37
2023-03-21T11:05:32.077Z,37
2023-03-21T11:11:37.495Z,36.9
2023-03-21T11:17:43.447Z,36.9
2023-03-21T11:23:48.598Z,36.9
2023-03-21T11:29:53.752Z,36.9
2023-03-21T11:36:00.009Z,36.9
2023-03-21T11:42:05.344Z,36.9
2023-03-21T11:48:11.196Z,36.9
2023-03-21T11:54:16.680Z,36.9
2023-03-21T12:00:22.671Z,36.8
2023-03-21T12:06:28.627Z,36.8
2023-03-21T12:12:42.474Z,36.8
2023-03-21T12:18:47.609Z,36.8
2023-03-21T12:24:53.197Z,36.8
2023-03-21T12:30:59.119Z,36.7
2023-03-21T12:37:05.077Z,36.7
2023-03-21T12:43:10.718Z,36.6
2023-03-21T12:49:16.639Z,36.6
2023-03-21T12:55:21.606Z,36.6
2023-03-21T13:01:27.692Z,36.6
2023-03-21T13:07:32.950Z,36.6
2023-03-21T13:13:38.925Z,36.5
2023-03-21T13:19:44.007Z,36.5
2023-03-21T13:25:49.676Z,36.5
2023-03-21T13:31:59.054Z,36.5
2023-03-21T13:38:04.803Z,36.5
2023-03-21T13:44:10.969Z,36.5
2023-03-21T13:50:16.550Z,36.5
2023-03-21T13:56:21.795Z,36.5
2023-03-21T14:02:27.672Z,36.5
2023-03-21T14:08:40.025Z,36.4
2023-03-21T14:14:45.580Z,36.5
2023-03-21T14:20:50.747Z,36.5
2023-03-21T14:26:56.325Z,36.5
2023-03-21T14:33:01.826Z,36.5
2023-03-21T14:39:07.405Z,36.5
2023-03-21T14:45:13.397Z,36.5
2023-03-21T14:51:18.960Z,36.6
2023-03-21T14:57:24.724Z,36.6
2023-03-21T15:03:29.739Z,36.5
2023-03-21T15:09:35.137Z,36.5
2023-03-21T15:15:42.960Z,36.4
2023-03-21T15:21:48.664Z,36.4
2023-03-21T15:27:54.083Z,36.3
2023-03-21T15:33:59.678Z,36.3
2023-03-21T15:40:05.261Z,36.3
2023-03-21T15:46:10.817Z,36.3
2023-03-21T15:52:17.140Z,36.3
2023-03-21T15:58:21.962Z,36.2
2023-03-21T16:04:27.451Z,36.3
2023-03-21T16:10:33.242Z,36.2
2023-03-21T16:16:39.097Z,36.2
2023-03-21T16:22:44.402Z,36.2
2023-03-21T16:28:49.843Z,36.2
2023-03-21T16:34:55.612Z,36.2
2023-03-21T16:41:01.309Z,36.2
2023-03-21T16:47:06.666Z,36.2
2023-03-21T16:53:12.303Z,36.2
2023-03-21T16:59:17.408Z,36.3
2023-03-21T17:05:22.827Z,36.3
2023-03-21T17:11:27.937Z,36.3
2023-03-21T17:17:33.499Z,36.3
2023-03-21T17:23:38.888Z,36.3
2023-03-21T17:29:44.521Z,36.3
2023-03-21T17:35:50.164Z,36.4
2023-03-21T17:41:55.997Z,36.4
2023-03-21T17:48:01.811Z,36.4
2023-03-21T17:54:07.358Z,36.5
2023-03-21T18:00:13.757Z,36.5
2023-03-21T18:06:19.318Z,36.5
2023-03-21T18:12:24.546Z,36.5
2023-03-21T18:18:30.253Z,36.6
2023-03-21T18:24:35.337Z,36.7
2023-03-21T18:31:18.975Z,36.7
2023-03-21T18:37:25.070Z,36.8
2023-03-21T18:44:22.434Z,36.8
2023-03-21T18:50:30.091Z,36.9
2023-03-21T18:57:38.581Z,36.9
2023-03-21T19:04:23.711Z,36.9
2023-03-21T19:10:29.462Z,37
2023-03-21T19:18:23.103Z,37
2023-03-21T19:24:34.220Z,37.2
2023-03-21T19:30:48.912Z,37.3
2023-03-21T19:36:55.846Z,37.3
2023-03-21T19:43:32.568Z,37.4
2023-03-21T19:51:20.435Z,37.3
2023-03-21T19:57:31.801Z,37.3
2023-03-21T20:03:37.892Z,37.5
2023-03-21T20:09:58.753Z,37.4
2023-03-21T20:16:09.836Z,37.5
2023-03-21T20:23:08.097Z,37.5
2023-03-21T20:30:11.627Z,37.5
2023-03-21T20:36:44.269Z,37.7
2023-03-21T20:42:51.975Z,37.7
2023-03-21T20:48:56.976Z,37.7
2023-03-21T20:55:02.156Z,37.8
2023-03-21T21:01:07.215Z,37.9
2023-03-21T21:07:13.023Z,37.7
2023-03-21T21:13:18.404Z,38
2023-03-21T21:19:23.598Z,37.9
2023-03-21T21:25:29.024Z,37.9
2023-03-21T21:31:35.150Z,38.1
2023-03-21T21:37:40.353Z,38
2023-03-21T21:43:45.463Z,38
2023-03-21T21:49:50.656Z,38
2023-03-21T21:55:55.973Z,38.2
2023-03-21T22:02:01.348Z,38.1
2023-03-21T22:08:08.494Z,38.1
2023-03-21T22:14:14.389Z,38.1
2023-03-21T22:20:20.110Z,38
2023-03-21T22:26:25.776Z,38.1
2023-03-21T22:32:31.320Z,38
2023-03-21T22:38:37.087Z,38
2023-03-21T22:44:42.384Z,38.1
2023-03-21T22:50:47.417Z,38.1
2023-03-21T22:56:53.127Z,38
2023-03-21T23:02:58.702Z,38.1
2023-03-21T23:09:04.590Z,38.1
2023-03-21T23:15:09.942Z,38.1
2023-03-21T23:21:15.492Z,38
2023-03-21T23:27:20.467Z,38.1
2023-03-21T23:33:26.021Z,38.1
2023-03-21T23:39:31.330Z,38
2023-03-21T23:45:36.741Z,38.1
2023-03-21T23:51:41.931Z,38.1
2023-03-21T23:57:47.704Z,38.1
